sensor_id;sensor_type;location;lat;lon;timestamp;P1;durP1;ratioP1;P2;durP2;ratioP2
77226;SDS011;66234;47.642;19.144;2023-11-22T00:02:52;32.15;;;28.70;;
77226;SDS011;66234;47.642;19.144;2023-11-22T00:05:55;28.52;;;22.58;;
77226;SDS011;66234;47.642;19.144;2023-11-22T00:08:58;29.60;;;21.27;;
77226;SDS011;66234;47.642;19.144;2023-11-22T00:12:00;28.85;;;19.25;;
77226;SDS011;66234;47.642;19.144;2023-11-22T00:15:04;23.77;;;17.70;;
77226;SDS011;66234;47.642;19.144;2023-11-22T00:18:08;19.13;;;15.07;;
77226;SDS011;66234;47.642;19.144;2023-11-22T00:21:11;20.80;;;14.27;;
77226;SDS011;66234;47.642;19.144;2023-11-22T00:24:14;17.50;;;13.20;;
77226;SDS011;66234;47.642;19.144;2023-11-22T00:27:17;19.63;;;13.75;;
77226;SDS011;66234;47.642;19.144;2023-11-22T00:30:20;21.58;;;14.27;;
77226;SDS011;66234;47.642;19.144;2023-11-22T00:33:22;20.60;;;13.93;;
77226;SDS011;66234;47.642;19.144;2023-11-22T00:36:25;17.03;;;12.20;;
77226;SDS011;66234;47.642;19.144;2023-11-22T00:39:27;19.80;;;12.93;;
77226;SDS011;66234;47.642;19.144;2023-11-22T00:42:30;20.00;;;13.18;;
77226;SDS011;66234;47.642;19.144;2023-11-22T00:45:32;20.57;;;13.70;;
77226;SDS011;66234;47.642;19.144;2023-11-22T00:48:35;23.40;;;14.13;;
77226;SDS011;66234;47.642;19.144;2023-11-22T00:51:38;20.08;;;13.68;;
77226;SDS011;66234;47.642;19.144;2023-11-22T00:54:41;18.10;;;11.70;;
77226;SDS011;66234;47.642;19.144;2023-11-22T00:57:43;18.55;;;12.77;;
77226;SDS011;66234;47.642;19.144;2023-11-22T01:00:46;20.57;;;11.77;;
77226;SDS011;66234;47.642;19.144;2023-11-22T01:03:48;18.58;;;12.23;;
77226;SDS011;66234;47.642;19.144;2023-11-22T01:06:51;25.73;;;12.60;;
77226;SDS011;66234;47.642;19.144;2023-11-22T01:09:53;25.70;;;12.13;;
77226;SDS011;66234;47.642;19.144;2023-11-22T01:12:56;26.10;;;12.40;;
77226;SDS011;66234;47.642;19.144;2023-11-22T01:15:58;25.70;;;11.95;;
77226;SDS011;66234;47.642;19.144;2023-11-22T01:19:01;17.52;;;11.98;;
77226;SDS011;66234;47.642;19.144;2023-11-22T01:22:04;18.48;;;11.52;;
77226;SDS011;66234;47.642;19.144;2023-11-22T01:25:07;21.03;;;11.47;;
77226;SDS011;66234;47.642;19.144;2023-11-22T01:28:10;16.23;;;10.38;;
77226;SDS011;66234;47.642;19.144;2023-11-22T01:31:13;17.38;;;10.80;;
77226;SDS011;66234;47.642;19.144;2023-11-22T01:34:16;19.35;;;11.48;;
77226;SDS011;66234;47.642;19.144;2023-11-22T01:37:18;19.60;;;10.23;;
77226;SDS011;66234;47.642;19.144;2023-11-22T01:40:21;20.45;;;10.05;;
77226;SDS011;66234;47.642;19.144;2023-11-22T01:43:26;15.82;;;9.32;;
77226;SDS011;66234;47.642;19.144;2023-11-22T01:46:29;15.45;;;8.73;;
77226;SDS011;66234;47.642;19.144;2023-11-22T01:49:32;16.60;;;9.80;;
77226;SDS011;66234;47.642;19.144;2023-11-22T01:52:35;14.90;;;9.00;;
77226;SDS011;66234;47.642;19.144;2023-11-22T01:55:41;12.68;;;8.70;;
77226;SDS011;66234;47.642;19.144;2023-11-22T01:58:44;17.15;;;9.30;;
77226;SDS011;66234;47.642;19.144;2023-11-22T02:01:48;19.00;;;8.70;;
77226;SDS011;66234;47.642;19.144;2023-11-22T02:04:51;14.37;;;8.67;;
77226;SDS011;66234;47.642;19.144;2023-11-22T02:07:54;15.95;;;7.95;;
77226;SDS011;66234;47.642;19.144;2023-11-22T02:10:57;17.73;;;8.15;;
77226;SDS011;66234;47.642;19.144;2023-11-22T02:14:06;25.23;;;7.90;;
77226;SDS011;66234;47.642;19.144;2023-11-22T02:17:09;16.57;;;7.00;;
77226;SDS011;66234;47.642;19.144;2023-11-22T02:20:12;10.40;;;6.73;;
77226;SDS011;66234;47.642;19.144;2023-11-22T02:23:15;13.40;;;7.63;;
77226;SDS011;66234;47.642;19.144;2023-11-22T02:26:18;11.60;;;6.43;;
77226;SDS011;66234;47.642;19.144;2023-11-22T02:29:21;11.82;;;7.18;;
77226;SDS011;66234;47.642;19.144;2023-11-22T02:32:23;8.53;;;5.40;;
77226;SDS011;66234;47.642;19.144;2023-11-22T02:35:26;10.68;;;6.20;;
77226;SDS011;66234;47.642;19.144;2023-11-22T02:38:29;12.88;;;6.72;;
77226;SDS011;66234;47.642;19.144;2023-11-22T02:41:32;10.57;;;6.65;;
77226;SDS011;66234;47.642;19.144;2023-11-22T02:44:34;13.07;;;6.50;;
77226;SDS011;66234;47.642;19.144;2023-11-22T02:47:37;9.63;;;5.90;;
77226;SDS011;66234;47.642;19.144;2023-11-22T02:50:39;10.77;;;6.13;;
77226;SDS011;66234;47.642;19.144;2023-11-22T02:53:46;12.68;;;6.50;;
77226;SDS011;66234;47.642;19.144;2023-11-22T02:56:49;13.30;;;6.57;;
77226;SDS011;66234;47.642;19.144;2023-11-22T02:59:52;17.23;;;6.63;;
77226;SDS011;66234;47.642;19.144;2023-11-22T03:02:55;13.77;;;6.18;;
77226;SDS011;66234;47.642;19.144;2023-11-22T03:05:59;13.55;;;6.15;;
77226;SDS011;66234;47.642;19.144;2023-11-22T03:09:01;19.13;;;5.97;;
77226;SDS011;66234;47.642;19.144;2023-11-22T03:12:04;13.02;;;5.43;;
77226;SDS011;66234;47.642;19.144;2023-11-22T03:15:08;14.15;;;6.03;;
77226;SDS011;66234;47.642;19.144;2023-11-22T03:18:11;12.32;;;5.95;;
77226;SDS011;66234;47.642;19.144;2023-11-22T03:21:14;15.57;;;5.37;;
77226;SDS011;66234;47.642;19.144;2023-11-22T03:24:16;9.95;;;5.30;;
77226;SDS011;66234;47.642;19.144;2023-11-22T03:27:19;12.85;;;5.95;;
77226;SDS011;66234;47.642;19.144;2023-11-22T03:30:24;14.65;;;5.60;;
77226;SDS011;66234;47.642;19.144;2023-11-22T03:33:27;11.65;;;5.80;;
77226;SDS011;66234;47.642;19.144;2023-11-22T03:36:29;13.47;;;6.23;;
77226;SDS011;66234;47.642;19.144;2023-11-22T03:39:33;9.98;;;5.93;;
77226;SDS011;66234;47.642;19.144;2023-11-22T03:42:36;12.48;;;6.25;;
77226;SDS011;66234;47.642;19.144;2023-11-22T03:45:40;21.02;;;5.72;;
77226;SDS011;66234;47.642;19.144;2023-11-22T03:48:42;30.30;;;6.93;;
77226;SDS011;66234;47.642;19.144;2023-11-22T03:51:45;13.38;;;5.25;;
77226;SDS011;66234;47.642;19.144;2023-11-22T03:54:50;16.77;;;5.85;;
77226;SDS011;66234;47.642;19.144;2023-11-22T03:57:52;13.45;;;5.05;;
77226;SDS011;66234;47.642;19.144;2023-11-22T04:00:55;37.90;;;5.37;;
77226;SDS011;66234;47.642;19.144;2023-11-22T04:03:57;13.20;;;4.95;;
77226;SDS011;66234;47.642;19.144;2023-11-22T04:07:00;12.10;;;5.05;;
77226;SDS011;66234;47.642;19.144;2023-11-22T04:10:03;12.18;;;5.38;;
77226;SDS011;66234;47.642;19.144;2023-11-22T04:13:06;8.17;;;5.30;;
77226;SDS011;66234;47.642;19.144;2023-11-22T04:16:09;15.18;;;6.05;;
77226;SDS011;66234;47.642;19.144;2023-11-22T04:19:14;30.33;;;5.90;;
77226;SDS011;66234;47.642;19.144;2023-11-22T04:22:17;13.13;;;6.53;;
77226;SDS011;66234;47.642;19.144;2023-11-22T04:25:19;10.00;;;5.17;;
77226;SDS011;66234;47.642;19.144;2023-11-22T04:28:22;24.77;;;6.18;;
77226;SDS011;66234;47.642;19.144;2023-11-22T04:31:24;10.20;;;4.55;;
77226;SDS011;66234;47.642;19.144;2023-11-22T04:34:27;11.70;;;5.97;;
77226;SDS011;66234;47.642;19.144;2023-11-22T04:37:30;19.93;;;5.93;;
77226;SDS011;66234;47.642;19.144;2023-11-22T04:40:34;19.40;;;6.35;;
77226;SDS011;66234;47.642;19.144;2023-11-22T04:43:37;13.20;;;5.30;;
77226;SDS011;66234;47.642;19.144;2023-11-22T04:46:39;23.48;;;5.40;;
77226;SDS011;66234;47.642;19.144;2023-11-22T04:49:42;8.37;;;5.03;;
77226;SDS011;66234;47.642;19.144;2023-11-22T04:52:45;13.95;;;5.13;;
77226;SDS011;66234;47.642;19.144;2023-11-22T04:55:47;11.25;;;4.82;;
77226;SDS011;66234;47.642;19.144;2023-11-22T04:58:51;8.00;;;5.13;;
77226;SDS011;66234;47.642;19.144;2023-11-22T05:01:54;8.10;;;5.00;;
77226;SDS011;66234;47.642;19.144;2023-11-22T05:04:56;9.30;;;5.05;;
77226;SDS011;66234;47.642;19.144;2023-11-22T05:07:59;9.00;;;4.72;;
77226;SDS011;66234;47.642;19.144;2023-11-22T05:11:01;6.47;;;4.57;;
77226;SDS011;66234;47.642;19.144;2023-11-22T05:14:05;12.50;;;5.10;;
77226;SDS011;66234;47.642;19.144;2023-11-22T05:17:08;9.80;;;5.35;;
77226;SDS011;66234;47.642;19.144;2023-11-22T05:20:10;14.63;;;5.00;;
77226;SDS011;66234;47.642;19.144;2023-11-22T05:23:13;7.45;;;4.90;;
77226;SDS011;66234;47.642;19.144;2023-11-22T05:26:16;14.43;;;6.13;;
77226;SDS011;66234;47.642;19.144;2023-11-22T05:29:19;8.18;;;5.38;;
77226;SDS011;66234;47.642;19.144;2023-11-22T05:32:21;11.43;;;5.32;;
77226;SDS011;66234;47.642;19.144;2023-11-22T05:35:24;8.88;;;4.88;;
77226;SDS011;66234;47.642;19.144;2023-11-22T05:38:27;15.53;;;5.93;;
77226;SDS011;66234;47.642;19.144;2023-11-22T05:41:29;11.48;;;5.50;;
77226;SDS011;66234;47.642;19.144;2023-11-22T05:44:32;7.97;;;4.68;;
77226;SDS011;66234;47.642;19.144;2023-11-22T05:47:35;9.13;;;5.22;;
77226;SDS011;66234;47.642;19.144;2023-11-22T05:50:37;12.07;;;5.43;;
77226;SDS011;66234;47.642;19.144;2023-11-22T05:53:40;16.25;;;5.45;;
77226;SDS011;66234;47.642;19.144;2023-11-22T05:56:43;6.30;;;3.97;;
77226;SDS011;66234;47.642;19.144;2023-11-22T05:59:45;5.60;;;3.58;;
77226;SDS011;66234;47.642;19.144;2023-11-22T06:02:48;4.50;;;3.63;;
77226;SDS011;66234;47.642;19.144;2023-11-22T06:05:51;7.22;;;3.70;;
77226;SDS011;66234;47.642;19.144;2023-11-22T06:08:54;6.45;;;4.45;;
77226;SDS011;66234;47.642;19.144;2023-11-22T06:11:56;9.77;;;6.53;;
77226;SDS011;66234;47.642;19.144;2023-11-22T06:14:59;10.83;;;6.03;;
77226;SDS011;66234;47.642;19.144;2023-11-22T06:18:02;15.13;;;7.00;;
77226;SDS011;66234;47.642;19.144;2023-11-22T06:21:04;9.38;;;5.45;;
77226;SDS011;66234;47.642;19.144;2023-11-22T06:24:07;8.55;;;5.45;;
77226;SDS011;66234;47.642;19.144;2023-11-22T06:27:11;9.75;;;5.47;;
77226;SDS011;66234;47.642;19.144;2023-11-22T06:30:14;10.83;;;5.17;;
77226;SDS011;66234;47.642;19.144;2023-11-22T06:33:17;9.57;;;5.25;;
77226;SDS011;66234;47.642;19.144;2023-11-22T06:36:20;13.80;;;7.22;;
77226;SDS011;66234;47.642;19.144;2023-11-22T06:39:22;15.82;;;8.88;;
77226;SDS011;66234;47.642;19.144;2023-11-22T06:42:27;13.33;;;6.73;;
77226;SDS011;66234;47.642;19.144;2023-11-22T06:45:30;6.87;;;4.20;;
77226;SDS011;66234;47.642;19.144;2023-11-22T06:48:37;8.05;;;4.18;;
77226;SDS011;66234;47.642;19.144;2023-11-22T06:51:40;6.45;;;3.70;;
77226;SDS011;66234;47.642;19.144;2023-11-22T06:54:43;6.05;;;3.88;;
77226;SDS011;66234;47.642;19.144;2023-11-22T06:57:46;5.80;;;3.50;;
77226;SDS011;66234;47.642;19.144;2023-11-22T07:00:48;7.03;;;4.27;;
77226;SDS011;66234;47.642;19.144;2023-11-22T07:03:51;6.30;;;3.83;;
77226;SDS011;66234;47.642;19.144;2023-11-22T07:06:55;5.65;;;3.75;;
77226;SDS011;66234;47.642;19.144;2023-11-22T07:09:58;6.25;;;3.88;;
77226;SDS011;66234;47.642;19.144;2023-11-22T07:13:02;8.23;;;4.23;;
77226;SDS011;66234;47.642;19.144;2023-11-22T07:16:05;10.00;;;3.80;;
77226;SDS011;66234;47.642;19.144;2023-11-22T07:19:09;6.55;;;3.70;;
77226;SDS011;66234;47.642;19.144;2023-11-22T07:22:18;5.68;;;3.47;;
77226;SDS011;66234;47.642;19.144;2023-11-22T07:25:25;6.25;;;4.13;;
77226;SDS011;66234;47.642;19.144;2023-11-22T07:28:29;9.13;;;4.43;;
77226;SDS011;66234;47.642;19.144;2023-11-22T07:31:33;8.47;;;3.83;;
77226;SDS011;66234;47.642;19.144;2023-11-22T07:34:37;6.38;;;3.67;;
77226;SDS011;66234;47.642;19.144;2023-11-22T07:37:44;7.50;;;3.65;;
77226;SDS011;66234;47.642;19.144;2023-11-22T07:40:47;6.50;;;3.35;;
77226;SDS011;66234;47.642;19.144;2023-11-22T07:43:50;6.90;;;3.63;;
77226;SDS011;66234;47.642;19.144;2023-11-22T07:46:53;5.07;;;3.23;;
77226;SDS011;66234;47.642;19.144;2023-11-22T07:49:56;5.45;;;3.55;;
77226;SDS011;66234;47.642;19.144;2023-11-22T07:52:58;3.92;;;2.28;;
77226;SDS011;66234;47.642;19.144;2023-11-22T07:56:01;6.15;;;4.00;;
77226;SDS011;66234;47.642;19.144;2023-11-22T07:59:06;5.90;;;3.53;;
77226;SDS011;66234;47.642;19.144;2023-11-22T08:02:09;6.57;;;4.70;;
77226;SDS011;66234;47.642;19.144;2023-11-22T08:05:14;11.25;;;6.30;;
77226;SDS011;66234;47.642;19.144;2023-11-22T08:08:18;9.85;;;5.60;;
77226;SDS011;66234;47.642;19.144;2023-11-22T08:11:21;7.22;;;5.00;;
77226;SDS011;66234;47.642;19.144;2023-11-22T08:14:23;7.87;;;4.57;;
77226;SDS011;66234;47.642;19.144;2023-11-22T08:17:28;7.57;;;5.33;;
77226;SDS011;66234;47.642;19.144;2023-11-22T08:20:30;5.88;;;4.18;;
77226;SDS011;66234;47.642;19.144;2023-11-22T08:23:33;6.93;;;4.30;;
77226;SDS011;66234;47.642;19.144;2023-11-22T08:26:36;6.72;;;4.30;;
77226;SDS011;66234;47.642;19.144;2023-11-22T08:29:39;8.73;;;4.70;;
77226;SDS011;66234;47.642;19.144;2023-11-22T08:32:45;6.73;;;4.17;;
77226;SDS011;66234;47.642;19.144;2023-11-22T08:35:53;6.18;;;4.05;;
77226;SDS011;66234;47.642;19.144;2023-11-22T08:39:02;6.30;;;4.03;;
77226;SDS011;66234;47.642;19.144;2023-11-22T08:42:07;6.47;;;4.78;;
77226;SDS011;66234;47.642;19.144;2023-11-22T08:45:11;6.50;;;4.80;;
77226;SDS011;66234;47.642;19.144;2023-11-22T08:48:14;5.00;;;3.80;;
77226;SDS011;66234;47.642;19.144;2023-11-22T08:51:18;6.40;;;3.80;;
77226;SDS011;66234;47.642;19.144;2023-11-22T08:54:21;7.57;;;4.47;;
77226;SDS011;66234;47.642;19.144;2023-11-22T08:57:24;7.97;;;4.22;;
77226;SDS011;66234;47.642;19.144;2023-11-22T09:00:26;6.23;;;4.13;;
77226;SDS011;66234;47.642;19.144;2023-11-22T09:03:33;5.83;;;4.00;;
77226;SDS011;66234;47.642;19.144;2023-11-22T09:06:36;7.45;;;3.47;;
77226;SDS011;66234;47.642;19.144;2023-11-22T09:09:38;6.03;;;3.95;;
77226;SDS011;66234;47.642;19.144;2023-11-22T09:12:43;5.32;;;3.45;;
77226;SDS011;66234;47.642;19.144;2023-11-22T09:15:46;6.23;;;3.53;;
77226;SDS011;66234;47.642;19.144;2023-11-22T09:18:49;5.37;;;3.10;;
77226;SDS011;66234;47.642;19.144;2023-11-22T09:21:52;6.00;;;3.00;;
77226;SDS011;66234;47.642;19.144;2023-11-22T09:24:55;3.78;;;2.63;;
77226;SDS011;66234;47.642;19.144;2023-11-22T09:27:58;3.45;;;2.10;;
77226;SDS011;66234;47.642;19.144;2023-11-22T09:31:01;4.17;;;3.03;;
77226;SDS011;66234;47.642;19.144;2023-11-22T09:34:08;5.33;;;2.97;;
77226;SDS011;66234;47.642;19.144;2023-11-22T09:37:11;6.45;;;3.10;;
77226;SDS011;66234;47.642;19.144;2023-11-22T09:40:16;12.90;;;2.97;;
77226;SDS011;66234;47.642;19.144;2023-11-22T09:43:20;4.60;;;2.90;;
77226;SDS011;66234;47.642;19.144;2023-11-22T09:46:23;4.23;;;2.23;;
77226;SDS011;66234;47.642;19.144;2023-11-22T09:49:27;7.47;;;3.53;;
77226;SDS011;66234;47.642;19.144;2023-11-22T09:52:33;2.75;;;1.90;;
77226;SDS011;66234;47.642;19.144;2023-11-22T09:55:40;5.78;;;2.67;;
77226;SDS011;66234;47.642;19.144;2023-11-22T09:58:46;4.88;;;2.45;;
77226;SDS011;66234;47.642;19.144;2023-11-22T10:01:53;2.60;;;1.40;;
77226;SDS011;66234;47.642;19.144;2023-11-22T10:04:56;3.23;;;2.40;;
77226;SDS011;66234;47.642;19.144;2023-11-22T10:08:00;5.28;;;2.10;;
77226;SDS011;66234;47.642;19.144;2023-11-22T10:11:03;6.63;;;2.90;;
77226;SDS011;66234;47.642;19.144;2023-11-22T10:14:06;5.60;;;2.95;;
77226;SDS011;66234;47.642;19.144;2023-11-22T10:17:09;4.60;;;2.70;;
77226;SDS011;66234;47.642;19.144;2023-11-22T10:20:12;3.90;;;2.60;;
77226;SDS011;66234;47.642;19.144;2023-11-22T10:23:15;2.70;;;2.33;;
77226;SDS011;66234;47.642;19.144;2023-11-22T10:26:20;5.47;;;2.97;;
77226;SDS011;66234;47.642;19.144;2023-11-22T10:29:24;4.30;;;2.72;;
77226;SDS011;66234;47.642;19.144;2023-11-22T10:32:28;4.00;;;2.90;;
77226;SDS011;66234;47.642;19.144;2023-11-22T10:35:30;4.30;;;2.23;;
77226;SDS011;66234;47.642;19.144;2023-11-22T10:38:33;4.20;;;2.22;;
77226;SDS011;66234;47.642;19.144;2023-11-22T10:41:37;4.50;;;2.70;;
77226;SDS011;66234;47.642;19.144;2023-11-22T10:44:40;5.28;;;3.05;;
77226;SDS011;66234;47.642;19.144;2023-11-22T10:47:44;5.10;;;2.93;;
77226;SDS011;66234;47.642;19.144;2023-11-22T10:50:48;5.27;;;3.07;;
77226;SDS011;66234;47.642;19.144;2023-11-22T10:53:55;5.63;;;2.35;;
77226;SDS011;66234;47.642;19.144;2023-11-22T10:56:58;6.57;;;3.28;;
77226;SDS011;66234;47.642;19.144;2023-11-22T11:00:03;4.38;;;2.80;;
77226;SDS011;66234;47.642;19.144;2023-11-22T11:03:18;6.17;;;3.23;;
77226;SDS011;66234;47.642;19.144;2023-11-22T11:06:32;4.27;;;2.90;;
77226;SDS011;66234;47.642;19.144;2023-11-22T11:09:39;3.70;;;2.70;;
77226;SDS011;66234;47.642;19.144;2023-11-22T11:12:46;5.00;;;3.03;;
77226;SDS011;66234;47.642;19.144;2023-11-22T11:16:03;8.13;;;3.33;;
77226;SDS011;66234;47.642;19.144;2023-11-22T11:19:07;4.93;;;3.23;;
77226;SDS011;66234;47.642;19.144;2023-11-22T11:22:12;3.60;;;2.87;;
77226;SDS011;66234;47.642;19.144;2023-11-22T11:25:16;3.17;;;2.67;;
77226;SDS011;66234;47.642;19.144;2023-11-22T11:28:24;4.72;;;2.83;;
77226;SDS011;66234;47.642;19.144;2023-11-22T11:31:32;4.82;;;2.72;;
77226;SDS011;66234;47.642;19.144;2023-11-22T11:34:48;3.13;;;1.93;;
77226;SDS011;66234;47.642;19.144;2023-11-22T11:37:59;4.90;;;2.90;;
77226;SDS011;66234;47.642;19.144;2023-11-22T11:41:11;5.30;;;2.70;;
77226;SDS011;66234;47.642;19.144;2023-11-22T11:44:14;3.45;;;2.05;;
77226;SDS011;66234;47.642;19.144;2023-11-22T11:47:16;3.75;;;2.00;;
77226;SDS011;66234;47.642;19.144;2023-11-22T11:50:22;4.70;;;3.00;;
77226;SDS011;66234;47.642;19.144;2023-11-22T11:53:24;4.23;;;2.73;;
77226;SDS011;66234;47.642;19.144;2023-11-22T11:56:27;4.10;;;2.55;;
77226;SDS011;66234;47.642;19.144;2023-11-22T11:59:32;5.20;;;2.67;;
77226;SDS011;66234;47.642;19.144;2023-11-22T12:02:35;4.55;;;2.58;;
77226;SDS011;66234;47.642;19.144;2023-11-22T12:05:38;3.00;;;1.80;;
77226;SDS011;66234;47.642;19.144;2023-11-22T12:08:41;2.80;;;1.90;;
77226;SDS011;66234;47.642;19.144;2023-11-22T12:11:47;5.13;;;2.70;;
77226;SDS011;66234;47.642;19.144;2023-11-22T12:14:50;3.90;;;2.42;;
77226;SDS011;66234;47.642;19.144;2023-11-22T12:17:53;5.20;;;2.90;;
77226;SDS011;66234;47.642;19.144;2023-11-22T12:21:00;4.37;;;2.50;;
77226;SDS011;66234;47.642;19.144;2023-11-22T12:24:03;5.37;;;2.60;;
77226;SDS011;66234;47.642;19.144;2023-11-22T12:27:09;3.17;;;1.90;;
77226;SDS011;66234;47.642;19.144;2023-11-22T12:30:34;3.47;;;1.88;;
77226;SDS011;66234;47.642;19.144;2023-11-22T12:33:37;3.10;;;1.60;;
77226;SDS011;66234;47.642;19.144;2023-11-22T12:36:42;7.03;;;2.80;;
77226;SDS011;66234;47.642;19.144;2023-11-22T12:39:46;3.47;;;2.50;;
77226;SDS011;66234;47.642;19.144;2023-11-22T12:42:50;5.18;;;3.15;;
77226;SDS011;66234;47.642;19.144;2023-11-22T12:45:58;4.45;;;2.53;;
77226;SDS011;66234;47.642;19.144;2023-11-22T12:49:05;6.22;;;2.88;;
77226;SDS011;66234;47.642;19.144;2023-11-22T12:52:09;4.97;;;2.70;;
77226;SDS011;66234;47.642;19.144;2023-11-22T12:55:11;3.03;;;2.30;;
77226;SDS011;66234;47.642;19.144;2023-11-22T12:58:17;2.85;;;2.17;;
77226;SDS011;66234;47.642;19.144;2023-11-22T13:01:23;2.60;;;2.17;;
77226;SDS011;66234;47.642;19.144;2023-11-22T13:04:26;3.08;;;1.98;;
77226;SDS011;66234;47.642;19.144;2023-11-22T13:07:30;3.73;;;1.90;;
77226;SDS011;66234;47.642;19.144;2023-11-22T13:10:33;4.80;;;2.27;;
77226;SDS011;66234;47.642;19.144;2023-11-22T13:13:36;3.90;;;2.10;;
77226;SDS011;66234;47.642;19.144;2023-11-22T13:16:39;3.38;;;2.53;;
77226;SDS011;66234;47.642;19.144;2023-11-22T13:19:42;7.70;;;2.63;;
77226;SDS011;66234;47.642;19.144;2023-11-22T13:22:45;4.23;;;2.90;;
77226;SDS011;66234;47.642;19.144;2023-11-22T13:25:49;5.73;;;3.87;;
77226;SDS011;66234;47.642;19.144;2023-11-22T13:28:51;5.20;;;3.03;;
77226;SDS011;66234;47.642;19.144;2023-11-22T13:31:56;4.97;;;2.80;;
77226;SDS011;66234;47.642;19.144;2023-11-22T13:35:00;3.90;;;2.60;;
77226;SDS011;66234;47.642;19.144;2023-11-22T13:38:02;3.80;;;2.33;;
77226;SDS011;66234;47.642;19.144;2023-11-22T13:41:10;2.50;;;2.10;;
77226;SDS011;66234;47.642;19.144;2023-11-22T13:44:13;3.17;;;2.50;;
77226;SDS011;66234;47.642;19.144;2023-11-22T13:47:16;4.05;;;2.40;;
77226;SDS011;66234;47.642;19.144;2023-11-22T13:50:19;6.43;;;2.40;;
77226;SDS011;66234;47.642;19.144;2023-11-22T13:53:24;6.40;;;3.00;;
77226;SDS011;66234;47.642;19.144;2023-11-22T13:56:27;13.30;;;5.00;;
77226;SDS011;66234;47.642;19.144;2023-11-22T13:59:30;6.55;;;3.63;;
77226;SDS011;66234;47.642;19.144;2023-11-22T14:02:32;7.53;;;3.50;;
77226;SDS011;66234;47.642;19.144;2023-11-22T14:05:35;8.23;;;4.68;;
77226;SDS011;66234;47.642;19.144;2023-11-22T14:08:41;7.97;;;4.50;;
77226;SDS011;66234;47.642;19.144;2023-11-22T14:11:44;7.33;;;5.20;;
77226;SDS011;66234;47.642;19.144;2023-11-22T14:14:46;13.05;;;5.28;;
77226;SDS011;66234;47.642;19.144;2023-11-22T14:17:49;9.02;;;5.95;;
77226;SDS011;66234;47.642;19.144;2023-11-22T14:20:54;9.55;;;6.43;;
77226;SDS011;66234;47.642;19.144;2023-11-22T14:23:58;10.47;;;6.70;;
77226;SDS011;66234;47.642;19.144;2023-11-22T14:27:01;12.53;;;6.40;;
77226;SDS011;66234;47.642;19.144;2023-11-22T14:30:06;10.70;;;6.13;;
77226;SDS011;66234;47.642;19.144;2023-11-22T14:33:10;10.88;;;6.15;;
77226;SDS011;66234;47.642;19.144;2023-11-22T14:36:13;9.98;;;6.18;;
77226;SDS011;66234;47.642;19.144;2023-11-22T14:39:15;11.57;;;6.70;;
77226;SDS011;66234;47.642;19.144;2023-11-22T14:42:18;14.53;;;7.47;;
77226;SDS011;66234;47.642;19.144;2023-11-22T14:45:21;15.13;;;8.15;;
77226;SDS011;66234;47.642;19.144;2023-11-22T14:48:23;17.58;;;11.30;;
77226;SDS011;66234;47.642;19.144;2023-11-22T14:51:26;13.10;;;7.55;;
77226;SDS011;66234;47.642;19.144;2023-11-22T14:54:28;18.70;;;10.47;;
77226;SDS011;66234;47.642;19.144;2023-11-22T14:57:31;14.00;;;8.23;;
77226;SDS011;66234;47.642;19.144;2023-11-22T15:00:34;18.73;;;11.13;;
77226;SDS011;66234;47.642;19.144;2023-11-22T15:03:38;21.73;;;11.60;;
77226;SDS011;66234;47.642;19.144;2023-11-22T15:06:40;18.45;;;11.90;;
77226;SDS011;66234;47.642;19.144;2023-11-22T15:09:46;17.97;;;11.17;;
77226;SDS011;66234;47.642;19.144;2023-11-22T15:12:48;17.37;;;11.80;;
77226;SDS011;66234;47.642;19.144;2023-11-22T15:15:52;27.05;;;16.83;;
77226;SDS011;66234;47.642;19.144;2023-11-22T15:18:54;26.23;;;16.17;;
77226;SDS011;66234;47.642;19.144;2023-11-22T15:21:57;28.88;;;15.88;;
77226;SDS011;66234;47.642;19.144;2023-11-22T15:25:01;30.37;;;17.30;;
77226;SDS011;66234;47.642;19.144;2023-11-22T15:28:03;36.67;;;17.63;;
77226;SDS011;66234;47.642;19.144;2023-11-22T15:31:06;33.80;;;20.63;;
77226;SDS011;66234;47.642;19.144;2023-11-22T15:34:09;38.63;;;18.67;;
77226;SDS011;66234;47.642;19.144;2023-11-22T15:37:15;28.02;;;17.48;;
77226;SDS011;66234;47.642;19.144;2023-11-22T15:40:18;25.67;;;14.57;;
77226;SDS011;66234;47.642;19.144;2023-11-22T15:43:22;17.57;;;10.67;;
77226;SDS011;66234;47.642;19.144;2023-11-22T15:46:25;17.35;;;10.80;;
77226;SDS011;66234;47.642;19.144;2023-11-22T15:49:28;21.67;;;11.75;;
77226;SDS011;66234;47.642;19.144;2023-11-22T15:52:30;17.42;;;9.63;;
77226;SDS011;66234;47.642;19.144;2023-11-22T15:55:33;17.17;;;9.73;;
77226;SDS011;66234;47.642;19.144;2023-11-22T15:58:35;14.87;;;9.07;;
77226;SDS011;66234;47.642;19.144;2023-11-22T16:01:39;31.50;;;19.17;;
77226;SDS011;66234;47.642;19.144;2023-11-22T16:04:41;48.47;;;28.05;;
77226;SDS011;66234;47.642;19.144;2023-11-22T16:07:44;43.67;;;24.08;;
77226;SDS011;66234;47.642;19.144;2023-11-22T16:10:47;71.70;;;44.93;;
77226;SDS011;66234;47.642;19.144;2023-11-22T16:13:49;53.50;;;35.00;;
77226;SDS011;66234;47.642;19.144;2023-11-22T16:16:52;35.65;;;22.90;;
77226;SDS011;66234;47.642;19.144;2023-11-22T16:19:54;26.63;;;16.20;;
77226;SDS011;66234;47.642;19.144;2023-11-22T16:22:58;20.67;;;13.10;;
77226;SDS011;66234;47.642;19.144;2023-11-22T16:26:01;27.10;;;16.20;;
77226;SDS011;66234;47.642;19.144;2023-11-22T16:29:08;19.47;;;12.20;;
77226;SDS011;66234;47.642;19.144;2023-11-22T16:32:10;21.73;;;11.32;;
77226;SDS011;66234;47.642;19.144;2023-11-22T16:35:13;19.38;;;11.10;;
77226;SDS011;66234;47.642;19.144;2023-11-22T16:38:18;19.08;;;11.40;;
77226;SDS011;66234;47.642;19.144;2023-11-22T16:41:22;17.43;;;10.73;;
77226;SDS011;66234;47.642;19.144;2023-11-22T16:44:27;29.97;;;16.73;;
77226;SDS011;66234;47.642;19.144;2023-11-22T16:47:30;32.08;;;15.95;;
77226;SDS011;66234;47.642;19.144;2023-11-22T16:50:34;30.77;;;16.10;;
77226;SDS011;66234;47.642;19.144;2023-11-22T16:53:40;12.82;;;8.15;;
77226;SDS011;66234;47.642;19.144;2023-11-22T16:56:42;4.60;;;2.13;;
77226;SDS011;66234;47.642;19.144;2023-11-22T16:59:45;7.77;;;4.80;;
77226;SDS011;66234;47.642;19.144;2023-11-22T17:02:48;7.30;;;4.07;;
77226;SDS011;66234;47.642;19.144;2023-11-22T17:05:51;8.13;;;4.65;;
77226;SDS011;66234;47.642;19.144;2023-11-22T17:08:54;9.90;;;4.97;;
77226;SDS011;66234;47.642;19.144;2023-11-22T17:11:56;10.00;;;4.77;;
77226;SDS011;66234;47.642;19.144;2023-11-22T17:15:02;10.37;;;5.23;;
77226;SDS011;66234;47.642;19.144;2023-11-22T17:18:07;7.18;;;4.25;;
77226;SDS011;66234;47.642;19.144;2023-11-22T17:21:10;7.00;;;3.38;;
77226;SDS011;66234;47.642;19.144;2023-11-22T17:24:18;10.10;;;6.07;;
77226;SDS011;66234;47.642;19.144;2023-11-22T17:27:21;12.77;;;7.47;;
77226;SDS011;66234;47.642;19.144;2023-11-22T17:30:23;10.93;;;6.63;;
77226;SDS011;66234;47.642;19.144;2023-11-22T17:33:27;14.90;;;8.13;;
77226;SDS011;66234;47.642;19.144;2023-11-22T17:36:31;16.38;;;9.98;;
77226;SDS011;66234;47.642;19.144;2023-11-22T17:39:34;16.05;;;8.30;;
77226;SDS011;66234;47.642;19.144;2023-11-22T17:42:37;15.10;;;7.70;;
77226;SDS011;66234;47.642;19.144;2023-11-22T17:45:39;7.87;;;5.13;;
77226;SDS011;66234;47.642;19.144;2023-11-22T17:48:43;16.40;;;8.70;;
77226;SDS011;66234;47.642;19.144;2023-11-22T17:51:45;14.27;;;6.93;;
77226;SDS011;66234;47.642;19.144;2023-11-22T17:54:54;14.57;;;7.57;;
77226;SDS011;66234;47.642;19.144;2023-11-22T17:57:58;16.37;;;7.40;;
77226;SDS011;66234;47.642;19.144;2023-11-22T18:01:01;14.83;;;7.63;;